createdAt,value
2018-09-30T00:00:00.874Z,82.2
2018-09-30T00:01:00.094Z,82.5
2018-09-30T00:01:59.013Z,82.3
2018-09-30T00:02:58.333Z,82.4
2018-09-30T00:03:57.040Z,82.8
2018-09-30T00:04:56.250Z,82.8
2018-09-30T00:05:55.165Z,82.7
2018-09-30T00:06:54.478Z,82.6
2018-09-30T00:07:24.793Z,82.6
2018-09-30T00:07:55.426Z,83.2
2018-09-30T00:08:25.982Z,83.2
2018-09-30T00:08:56.518Z,83.1
2018-09-30T00:09:51.701Z,83.3
2018-09-30T00:10:50.895Z,83.2
2018-09-30T00:11:50.101Z,83.5
2018-09-30T00:12:48.702Z,83.3
2018-09-30T00:13:48.028Z,83.6
2018-09-30T00:14:47.227Z,83.7
2018-09-30T00:15:46.143Z,84
2018-09-30T00:16:45.139Z,84
2018-09-30T00:17:44.134Z,84.1
2018-09-30T00:19:42.390Z,84
2018-09-30T00:20:41.656Z,84.3
2018-09-30T00:21:40.469Z,84
2018-09-30T00:22:39.779Z,84.1
2018-09-30T00:23:38.991Z,84.1
2018-09-30T00:24:09.632Z,84.1
2018-09-30T00:24:40.265Z,84.3
2018-09-30T00:25:10.789Z,84.3
2018-09-30T00:25:41.090Z,84.5
2018-09-30T00:26:11.621Z,84.5
2018-09-30T00:27:34.978Z,84.7
2018-09-30T00:28:34.177Z,84.9
2018-09-30T00:29:33.391Z,84.9
2018-09-30T00:30:32.205Z,84.9
2018-09-30T00:31:31.630Z,85
2018-09-30T00:32:30.428Z,84.9
2018-09-30T00:33:29.743Z,85.1
2018-09-30T00:34:28.446Z,85.3
2018-09-30T00:34:59.062Z,85.3
2018-09-30T00:35:29.576Z,85.4
2018-09-30T00:36:00.195Z,85.4
2018-09-30T00:36:30.824Z,85.3
2018-09-30T00:37:01.055Z,85.3
2018-09-30T00:37:31.468Z,85.3
2018-09-30T00:38:01.596Z,85.3
2018-09-30T00:39:23.949Z,85.6
2018-09-30T00:40:23.172Z,85.7
2018-09-30T00:41:22.092Z,85.8
2018-09-30T00:42:21.304Z,85.7
2018-09-30T00:43:20.114Z,85.7
2018-09-30T00:44:19.595Z,85.9
2018-09-30T00:45:18.512Z,85.8
2018-09-30T00:46:17.713Z,86.2
2018-09-30T00:47:16.411Z,86.1
2018-09-30T00:47:46.936Z,86.1
2018-09-30T00:49:14.719Z,86.3
2018-09-30T00:50:14.028Z,86.2
2018-09-30T00:51:12.738Z,86.3
2018-09-30T00:52:11.953Z,86.1
2018-09-30T00:53:11.154Z,86
2018-09-30T00:54:09.856Z,86
2018-09-30T00:55:09.067Z,85.8
2018-09-30T00:56:08.389Z,85.8
2018-09-30T00:57:07.307Z,85.7
2018-09-30T00:58:06.538Z,85.7
2018-09-30T00:59:05.476Z,85.7
2018-09-30T01:00:04.285Z,85.6
2018-09-30T01:01:03.497Z,85.6
2018-09-30T01:02:02.802Z,85.5
2018-09-30T01:03:01.623Z,85.6
2018-09-30T01:04:00.832Z,85.7
2018-09-30T01:05:00.043Z,85.9
2018-09-30T01:05:58.854Z,85.9
2018-09-30T01:06:29.272Z,85.9
2018-09-30T01:07:57.275Z,85.7
2018-09-30T01:08:56.475Z,85.9
2018-09-30T01:09:55.473Z,86.1
2018-09-30T01:10:54.289Z,86.1
2018-09-30T01:11:53.600Z,86.3
2018-09-30T01:12:52.714Z,86.3
2018-09-30T01:13:51.535Z,86.2
2018-09-30T01:14:50.737Z,86.2
2018-09-30T01:15:50.043Z,86.2
2018-09-30T01:16:20.675Z,86.2
2018-09-30T01:16:50.795Z,86.4
2018-09-30T01:17:21.428Z,86.4
2018-09-30T01:18:46.915Z,86.6
2018-09-30T01:19:46.235Z,86.5
2018-09-30T01:20:45.031Z,86.8
2018-09-30T01:21:44.457Z,86.9
2018-09-30T01:22:43.270Z,87
2018-09-30T01:23:42.187Z,87
2018-09-30T01:24:41.572Z,87.4
2018-09-30T01:25:40.674Z,87.2
2018-09-30T01:26:39.479Z,87.4
2018-09-30T01:27:10.119Z,87.4
2018-09-30T01:27:40.639Z,87.6
2018-09-30T01:28:37.940Z,87.6
2018-09-30T01:29:36.753Z,87.8
2018-09-30T01:30:35.958Z,87.7
2018-09-30T01:31:34.974Z,87.5
2018-09-30T01:32:34.288Z,87.4
2018-09-30T01:34:32.269Z,87.5
2018-09-30T01:35:30.979Z,87.4
2018-09-30T01:36:30.396Z,87.4
2018-09-30T01:37:29.604Z,87.6
2018-09-30T01:38:28.526Z,87.6
2018-09-30T01:39:27.728Z,88
2018-09-30T01:40:26.637Z,87.7
2018-09-30T01:41:25.950Z,87.9
2018-09-30T01:41:56.172Z,87.9
2018-09-30T01:42:26.691Z,88
2018-09-30T01:42:57.213Z,88
2018-09-30T01:43:27.839Z,87.9
2018-09-30T01:44:23.143Z,87.8
2018-09-30T01:45:21.957Z,88
2018-09-30T01:46:21.276Z,88
2018-09-30T01:47:21.794Z,88.2
2018-09-30T01:48:19.480Z,88.4
2018-09-30T01:49:18.290Z,88.2
2018-09-30T01:50:17.613Z,88.3
2018-09-30T01:51:16.425Z,88.2
2018-09-30T01:52:15.732Z,88.4
2018-09-30T01:53:14.435Z,88.4
2018-09-30T01:54:13.744Z,88.5
2018-09-30T01:55:12.950Z,88.6
2018-09-30T01:56:11.865Z,88.5
2018-09-30T01:57:11.180Z,88.8
2018-09-30T01:58:09.892Z,88.7
2018-09-30T01:59:09.093Z,88.5
2018-09-30T02:00:08.015Z,88.5
2018-09-30T02:01:07.112Z,88.6
2018-09-30T02:02:06.315Z,88.6
2018-09-30T02:03:05.521Z,88.5
2018-09-30T02:04:04.219Z,88.4
2018-09-30T02:05:03.425Z,88.4
2018-09-30T02:06:02.752Z,88.3
2018-09-30T02:07:01.451Z,88.3
2018-09-30T02:08:00.565Z,88.5
2018-09-30T02:08:59.975Z,88.3
2018-09-30T02:09:58.972Z,88.3
2018-09-30T02:10:57.784Z,88.4
2018-09-30T02:11:28.536Z,88.4
2018-09-30T02:11:59.153Z,88.3
2018-09-30T02:12:29.677Z,88.3
2018-09-30T02:12:59.787Z,88.4
2018-09-30T02:13:30.410Z,88.4
2018-09-30T02:14:54.376Z,88.7
2018-09-30T02:15:53.188Z,88.6
2018-09-30T02:17:51.385Z,88.9
2018-09-30T02:18:50.597Z,88.8
2018-09-30T02:19:49.410Z,88.7
2018-09-30T02:20:48.813Z,88.8
2018-09-30T02:21:19.008Z,88.8
2018-09-30T02:21:49.638Z,88.9
2018-09-30T02:22:20.045Z,88.9
2018-09-30T02:22:50.664Z,88.9
2018-09-30T02:23:21.284Z,88.9
2018-09-30T02:23:51.694Z,89
2018-09-30T02:24:22.334Z,89
2018-09-30T02:26:43.177Z,88.9
2018-09-30T02:27:42.097Z,89
2018-09-30T02:28:41.486Z,88.9
2018-09-30T02:29:40.415Z,88.9
2018-09-30T02:30:39.519Z,88.8
2018-09-30T02:31:38.238Z,88.8
2018-09-30T02:32:37.448Z,88.8
2018-09-30T02:33:36.568Z,88.8
2018-09-30T02:34:35.778Z,88.8
2018-09-30T02:35:05.917Z,88.8
2018-09-30T02:36:33.931Z,88.8
2018-09-30T02:37:32.640Z,88.7
2018-09-30T02:38:31.967Z,88.8
2018-09-30T02:39:30.888Z,88.9
2018-09-30T02:40:30.217Z,88.8
2018-09-30T02:41:00.449Z,88.8
2018-09-30T02:41:31.078Z,88.8
2018-09-30T02:42:28.178Z,88.8
2018-09-30T02:43:27.500Z,88.8
2018-09-30T02:44:26.333Z,88.8
2018-09-30T02:45:25.448Z,88.8
2018-09-30T02:46:24.663Z,88.8
2018-09-30T02:47:23.487Z,88.7
2018-09-30T02:48:22.708Z,88.7
2018-09-30T02:49:21.523Z,88.6
2018-09-30T02:50:20.851Z,88.7
2018-09-30T02:51:20.058Z,88.7
2018-09-30T02:51:50.308Z,88.7
2018-09-30T02:52:20.525Z,88.7
2018-09-30T02:52:51.180Z,88.7
2018-09-30T02:53:21.421Z,88.6
2018-09-30T02:53:51.944Z,88.6
2018-09-30T02:55:15.922Z,88.6
2018-09-30T02:56:15.147Z,88.6
2018-09-30T02:57:14.247Z,88.6
2018-09-30T02:58:13.198Z,88.6
2018-09-30T02:59:12.522Z,88.6
2018-09-30T03:00:11.473Z,88.6
2018-09-30T03:01:10.810Z,88.6
2018-09-30T03:02:09.755Z,88.5
2018-09-30T03:02:40.012Z,88.5
2018-09-30T03:03:10.261Z,88.5
2018-09-30T03:03:40.512Z,88.5
2018-09-30T03:04:10.745Z,88.5
2018-09-30T03:04:41.426Z,88.5
2018-09-30T03:06:05.816Z,88.6
2018-09-30T03:07:05.137Z,88.6
2018-09-30T03:08:04.054Z,88.5
2018-09-30T03:09:03.159Z,88.5
2018-09-30T03:10:02.075Z,88.7
2018-09-30T03:11:01.015Z,88.5
2018-09-30T03:12:00.373Z,88.5
2018-09-30T03:12:59.298Z,88.5
2018-09-30T03:13:58.524Z,88.4
2018-09-30T03:14:28.669Z,88.4
2018-09-30T03:14:59.307Z,88.4
2018-09-30T03:15:29.858Z,88.4
2018-09-30T03:16:00.108Z,88.5
2018-09-30T03:16:55.819Z,88.5
2018-09-30T03:17:54.434Z,88.5
2018-09-30T03:18:53.551Z,88.4
2018-09-30T03:19:52.765Z,88.4
2018-09-30T03:20:51.769Z,88.3
2018-09-30T03:21:51.195Z,88.3
2018-09-30T03:22:49.894Z,88.5
2018-09-30T03:23:49.112Z,88.5
2018-09-30T03:24:48.051Z,88.6
2018-09-30T03:25:47.478Z,88.7
2018-09-30T03:26:46.292Z,88.7
2018-09-30T03:27:45.361Z,88.8
2018-09-30T03:28:44.689Z,88.8
2018-09-30T03:29:43.613Z,88.8
2018-09-30T03:30:42.430Z,89.1
2018-09-30T03:31:41.767Z,89.1
2018-09-30T03:32:40.601Z,89
2018-09-30T03:33:39.921Z,89
2018-09-30T03:34:10.453Z,89
2018-09-30T03:35:37.742Z,89
2018-09-30T03:36:36.846Z,89
2018-09-30T03:37:36.177Z,89.1
2018-09-30T03:38:35.093Z,89.1
2018-09-30T03:39:34.536Z,89.2
2018-09-30T03:40:33.440Z,89.1
2018-09-30T03:41:32.252Z,89
2018-09-30T03:42:31.589Z,89.1
2018-09-30T03:43:30.372Z,89.1
2018-09-30T03:44:29.707Z,89.2
2018-09-30T03:45:28.464Z,89.1
2018-09-30T03:46:27.800Z,89.1
2018-09-30T03:47:26.509Z,89.1
2018-09-30T03:48:25.631Z,89
2018-09-30T03:49:24.835Z,89.1
2018-09-30T03:50:24.089Z,89.1
2018-09-30T03:51:22.793Z,89.1
2018-09-30T03:52:22.003Z,89.3
2018-09-30T03:53:20.824Z,89.2
2018-09-30T03:54:20.045Z,89.1
2018-09-30T03:55:18.969Z,89
2018-09-30T03:56:18.282Z,89
2018-09-30T03:57:17.211Z,89
2018-09-30T03:58:16.430Z,89
2018-09-30T03:58:46.566Z,89
2018-09-30T03:59:17.197Z,89
2018-09-30T03:59:47.738Z,89
2018-09-30T04:01:13.834Z,88.9
2018-09-30T04:02:12.655Z,88.9
2018-09-30T04:04:10.883Z,88.8
2018-09-30T04:05:09.776Z,88.7
2018-09-30T04:06:08.625Z,88.7
2018-09-30T04:07:07.855Z,88.7
2018-09-30T04:08:06.785Z,88.8
2018-09-30T04:08:37.228Z,88.8
2018-09-30T04:09:07.647Z,88.8
2018-09-30T04:09:38.492Z,88.8
2018-09-30T04:10:09.072Z,88.7
2018-09-30T04:10:39.328Z,88.7
2018-09-30T04:12:03.426Z,88.7
2018-09-30T04:14:01.517Z,88.6
2018-09-30T04:15:00.225Z,88.7
2018-09-30T04:15:59.652Z,88.7
2018-09-30T04:16:58.659Z,88.7
2018-09-30T04:17:57.823Z,88.6
2018-09-30T04:18:56.923Z,88.6
2018-09-30T04:19:55.741Z,88.5
2018-09-30T04:21:53.737Z,88.4
2018-09-30T04:22:53.068Z,88.4
2018-09-30T04:23:52.171Z,88.3
2018-09-30T04:24:51.017Z,88.2
2018-09-30T04:25:50.301Z,88.2
2018-09-30T04:26:49.375Z,88.2
2018-09-30T04:27:48.107Z,88.1
2018-09-30T04:28:18.343Z,88.1
2018-09-30T04:28:48.759Z,88
2018-09-30T04:29:46.569Z,88
2018-09-30T04:30:45.387Z,87.9
2018-09-30T04:31:44.705Z,87.8
2018-09-30T04:32:43.425Z,87.8
2018-09-30T04:34:41.740Z,87.7
2018-09-30T04:35:40.560Z,87.7
2018-09-30T04:36:39.992Z,87.6
2018-09-30T04:37:38.813Z,87.5
2018-09-30T04:38:09.449Z,87.5
2018-09-30T04:38:39.689Z,87.4
2018-09-30T04:39:10.320Z,87.4
2018-09-30T04:39:40.558Z,87.3
2018-09-30T04:40:11.200Z,87.3
2018-09-30T04:40:41.734Z,87.4
2018-09-30T04:41:12.368Z,87.4
2018-09-30T04:42:34.331Z,87.3
2018-09-30T04:43:33.145Z,87.5
2018-09-30T04:44:32.260Z,87.4
2018-09-30T04:45:31.263Z,87.4
2018-09-30T04:46:30.687Z,87.3
2018-09-30T04:47:29.295Z,87.3
2018-09-30T04:48:28.613Z,87.2
2018-09-30T04:48:58.853Z,87.2
2018-09-30T04:49:29.267Z,87.2
2018-09-30T04:49:59.941Z,87.2
2018-09-30T04:50:30.442Z,87.2
2018-09-30T04:51:01.085Z,87.2
2018-09-30T04:51:31.610Z,87.4
2018-09-30T04:52:02.132Z,87.4
2018-09-30T04:53:23.992Z,87.2
2018-09-30T04:54:23.093Z,87.1
2018-09-30T04:55:22.313Z,87.1
2018-09-30T04:56:21.132Z,87
2018-09-30T04:57:20.354Z,87
2018-09-30T04:58:19.278Z,87
2018-09-30T04:59:18.397Z,87
2018-09-30T05:00:17.209Z,87
2018-09-30T05:01:16.317Z,87
2018-09-30T05:01:46.726Z,87
2018-09-30T05:02:17.482Z,86.9
2018-09-30T05:02:47.608Z,86.9
2018-09-30T05:04:13.391Z,86.7
2018-09-30T05:05:12.719Z,86.7
2018-09-30T05:06:11.422Z,86.7
2018-09-30T05:08:09.737Z,86.6
2018-09-30T05:09:09.063Z,86.6
2018-09-30T05:10:07.994Z,86.6
2018-09-30T05:11:07.303Z,86.6
2018-09-30T05:12:06.225Z,86.6
2018-09-30T05:13:05.443Z,86.5
2018-09-30T05:14:04.163Z,86.4
2018-09-30T05:15:03.475Z,86.3
2018-09-30T05:16:02.263Z,86.3
2018-09-30T05:17:01.216Z,86.4
2018-09-30T05:18:00.648Z,86.3
2018-09-30T05:18:59.370Z,86.2
2018-09-30T05:19:30.009Z,86.2
2018-09-30T05:20:00.325Z,86.2
2018-09-30T05:20:30.958Z,86.2
2018-09-30T05:21:01.583Z,86.1
2018-09-30T05:21:32.005Z,86.1
2018-09-30T05:22:55.768Z,85.6
2018-09-30T05:23:55.088Z,85.5
2018-09-30T05:24:53.915Z,85.3
2018-09-30T05:25:53.245Z,85.3
2018-09-30T05:26:52.171Z,85.2
2018-09-30T05:27:51.406Z,85.1
2018-09-30T05:28:50.348Z,84.7
2018-09-30T05:29:49.228Z,84.1
2018-09-30T05:30:19.654Z,84.1
2018-09-30T05:30:49.893Z,84.2
2018-09-30T05:31:20.523Z,84.2
2018-09-30T05:31:50.739Z,84.2
2018-09-30T05:32:46.426Z,84.1
2018-09-30T05:33:45.243Z,84.1
2018-09-30T05:34:44.552Z,84
2018-09-30T05:35:43.472Z,84
2018-09-30T05:36:42.894Z,83.9
2018-09-30T05:37:41.595Z,83.5
2018-09-30T05:38:40.831Z,83.6
2018-09-30T05:39:40.045Z,83.5
2018-09-30T05:40:38.752Z,83.4
2018-09-30T05:41:38.071Z,83.3
2018-09-30T05:42:37.290Z,83.2
2018-09-30T05:43:36.002Z,83.2
2018-09-30T05:44:35.112Z,83.2
2018-09-30T05:45:34.422Z,83.2
2018-09-30T05:46:05.057Z,83.2
2018-09-30T05:46:35.689Z,83.1
2018-09-30T05:47:32.486Z,82.9
2018-09-30T05:48:31.314Z,82.8
2018-09-30T05:49:30.522Z,82.7
2018-09-30T05:50:29.456Z,82.4
2018-09-30T05:51:28.880Z,82.3
2018-09-30T05:52:27.991Z,82.3
2018-09-30T05:53:26.694Z,82.4
2018-09-30T05:54:26.006Z,82
2018-09-30T05:55:25.003Z,81.9
2018-09-30T05:55:55.249Z,81.9
2018-09-30T05:56:25.773Z,81.9
2018-09-30T05:56:56.406Z,81.9
2018-09-30T05:57:26.965Z,82
2018-09-30T05:58:22.379Z,81.9
2018-09-30T05:59:21.304Z,81.9
2018-09-30T06:01:19.500Z,81.8
2018-09-30T06:02:18.497Z,81.8
2018-09-30T06:03:17.311Z,81.4
2018-09-30T06:04:16.411Z,81.5
2018-09-30T06:05:15.740Z,81.4
2018-09-30T06:06:14.558Z,81.3
2018-09-30T06:07:13.675Z,81.6
2018-09-30T06:08:12.886Z,81.7
2018-09-30T06:09:12.521Z,81.7
2018-09-30T06:10:11.074Z,81.8
2018-09-30T06:11:09.890Z,81.6
2018-09-30T06:12:09.105Z,81.4
2018-09-30T06:13:08.427Z,81.4
2018-09-30T06:14:07.503Z,81.3
2018-09-30T06:16:05.500Z,81.8
2018-09-30T06:17:04.567Z,81.6
2018-09-30T06:18:03.492Z,81.3
2018-09-30T06:19:02.713Z,80.9
2018-09-30T06:20:01.817Z,81
2018-09-30T06:21:01.024Z,80.7
2018-09-30T06:21:59.624Z,80.8
2018-09-30T06:22:58.743Z,80.7
2018-09-30T06:23:58.028Z,80.8
2018-09-30T06:24:57.053Z,81
2018-09-30T06:25:27.297Z,81
2018-09-30T06:25:57.961Z,81.2
2018-09-30T06:26:28.587Z,81.2
2018-09-30T06:26:59.222Z,80.7
2018-09-30T06:27:29.855Z,80.7
2018-09-30T06:28:53.433Z,80.7
2018-09-30T06:29:52.147Z,80.6
2018-09-30T06:30:51.397Z,80.6
2018-09-30T06:31:50.811Z,80.5
2018-09-30T06:32:49.728Z,80
2018-09-30T06:33:48.555Z,80
2018-09-30T06:34:47.884Z,79.4
2018-09-30T06:35:46.987Z,79.6
2018-09-30T06:36:17.620Z,79.6
2018-09-30T06:38:44.152Z,79.4
2018-09-30T06:39:43.105Z,78.5
2018-09-30T06:40:42.425Z,78.4
2018-09-30T06:43:39.406Z,78.1
2018-09-30T06:45:37.609Z,77.8
2018-09-30T06:46:36.820Z,77.9
2018-09-30T06:47:36.046Z,77.8
2018-09-30T06:49:33.879Z,78.1
2018-09-30T06:52:31.366Z,77.1
2018-09-30T06:54:29.352Z,77.1
2018-09-30T06:55:00.101Z,77.1
2018-09-30T06:56:27.496Z,77
2018-09-30T06:57:26.811Z,76.3
2018-09-30T06:58:25.628Z,76.3
2018-09-30T06:59:24.843Z,76.3
2018-09-30T07:00:23.947Z,76.1
2018-09-30T07:01:22.891Z,76.1
2018-09-30T07:02:22.214Z,75.4
2018-09-30T07:03:21.331Z,75.6
2018-09-30T07:04:20.145Z,75.7
2018-09-30T07:05:19.348Z,75.6
2018-09-30T07:05:49.981Z,75.6
2018-09-30T07:06:20.218Z,75.1
2018-09-30T07:06:50.740Z,75.1
2018-09-30T07:07:21.163Z,74.7
2018-09-30T07:07:51.799Z,74.7
2018-09-30T07:08:22.036Z,74.6
2018-09-30T07:08:52.658Z,74.6
2018-09-30T07:10:14.408Z,74.4
2018-09-30T07:11:13.557Z,74.3
2018-09-30T07:12:12.992Z,74.5
2018-09-30T07:13:11.804Z,74.7
2018-09-30T07:15:09.901Z,74.1
2018-09-30T07:16:09.015Z,73.2
2018-09-30T07:16:39.808Z,73.2
2018-09-30T07:17:10.198Z,73.1
2018-09-30T07:17:40.428Z,73.1
2018-09-30T07:18:10.946Z,72.8
2018-09-30T07:18:41.271Z,72.8
2018-09-30T07:20:05.644Z,73.1
2018-09-30T07:21:04.660Z,72.9
2018-09-30T07:22:03.580Z,72.3
2018-09-30T07:24:01.894Z,72.4
2018-09-30T07:25:00.905Z,71.9
2018-09-30T07:26:00.126Z,72.4
2018-09-30T07:26:59.341Z,71.7
2018-09-30T07:27:58.046Z,71.9
2018-09-30T07:28:57.156Z,71.8
2018-09-30T07:29:56.478Z,72
2018-09-30T07:30:55.420Z,71.7
2018-09-30T07:31:54.864Z,71.3
2018-09-30T07:32:53.799Z,70.3
2018-09-30T07:33:53.256Z,70.7
2018-09-30T07:36:49.776Z,68.8
2018-09-30T07:37:49.197Z,68.5
2018-09-30T07:38:48.514Z,68
2018-09-30T07:39:47.219Z,68
2018-09-30T07:40:46.642Z,67.5
2018-09-30T07:46:41.409Z,66
2018-09-30T07:47:39.976Z,64.4
2018-09-30T07:48:10.707Z,64.4
2018-09-30T07:48:41.344Z,64.8
2018-09-30T07:49:38.539Z,65.2
2018-09-30T07:50:37.360Z,65.7
2018-09-30T07:56:32.001Z,65
2018-09-30T07:57:31.209Z,65.2
2018-09-30T07:58:30.627Z,65.9
2018-09-30T07:59:29.364Z,65.7
2018-09-30T08:00:28.575Z,65.9
2018-09-30T08:01:27.498Z,65.8
2018-09-30T08:02:26.707Z,66
2018-09-30T08:02:57.337Z,66
2018-09-30T08:05:24.120Z,65.5
2018-09-30T08:06:23.788Z,65
2018-09-30T08:07:22.612Z,65.8
2018-09-30T08:08:21.317Z,65.9
2018-09-30T08:09:20.634Z,65.2
2018-09-30T08:12:17.838Z,64.8
2018-09-30T08:12:48.358Z,64.8
2018-09-30T08:13:18.951Z,63.8
2018-09-30T08:13:49.468Z,63.8
2018-09-30T08:16:14.345Z,62.1
2018-09-30T08:17:13.676Z,63
2018-09-30T08:18:12.604Z,62.4
2018-09-30T08:20:10.793Z,62
2018-09-30T08:21:09.998Z,62.5
2018-09-30T08:22:09.126Z,62.2
2018-09-30T08:23:08.439Z,61.9
2018-09-30T08:23:38.688Z,61.9
2018-09-30T08:24:09.458Z,61.6
2018-09-30T08:24:39.784Z,61.6
2018-09-30T08:26:05.891Z,60.2
2018-09-30T08:27:04.717Z,60.1
2018-09-30T08:28:04.032Z,60.4
2018-09-30T08:29:03.234Z,59.8
2018-09-30T08:30:02.057Z,60.3
2018-09-30T08:31:01.163Z,59.6
2018-09-30T08:32:00.495Z,60.3
2018-09-30T08:32:59.817Z,60.5
2018-09-30T08:33:58.635Z,59.7
2018-09-30T08:34:57.846Z,60.1
2018-09-30T08:35:57.160Z,60.4
2018-09-30T08:36:55.872Z,60.5
2018-09-30T08:37:55.297Z,59
2018-09-30T08:38:54.421Z,59.9
2018-09-30T08:39:53.861Z,59.5
2018-09-30T08:40:52.769Z,59.7
2018-09-30T08:41:51.980Z,60.5
2018-09-30T08:42:22.508Z,60.5
2018-09-30T08:42:53.250Z,59.7
2018-09-30T08:43:23.481Z,59.7
2018-09-30T08:44:49.257Z,59.8
2018-09-30T08:45:48.558Z,59.8
2018-09-30T08:46:47.584Z,59.2
2018-09-30T08:47:47.138Z,58.9
2018-09-30T08:48:45.735Z,59.4
2018-09-30T08:49:44.850Z,59.5
2018-09-30T08:50:43.842Z,59.3
2018-09-30T08:51:43.457Z,58.8
2018-09-30T08:52:13.984Z,58.8
2018-09-30T08:52:44.624Z,60.2
2018-09-30T08:53:14.857Z,60.2
2018-09-30T08:53:45.290Z,59.5
2018-09-30T08:54:15.267Z,59.5
2018-09-30T08:54:45.802Z,58.6
2018-09-30T08:55:16.432Z,58.6
2018-09-30T08:55:47.142Z,59.1
2018-09-30T08:56:17.425Z,59.1
2018-09-30T08:57:38.384Z,58.2
2018-09-30T08:58:37.084Z,58.2
2018-09-30T08:59:36.194Z,58
2018-09-30T09:00:35.303Z,57.3
2018-09-30T09:01:34.615Z,57.6
2018-09-30T09:02:33.829Z,58.1
2018-09-30T09:03:33.278Z,58.3
2018-09-30T09:04:32.107Z,57.8
2018-09-30T09:05:02.636Z,57.8
2018-09-30T09:05:32.845Z,57.8
2018-09-30T09:06:03.367Z,57.8
2018-09-30T09:06:33.993Z,58.4
2018-09-30T09:07:04.233Z,58.4
2018-09-30T09:08:28.717Z,54.9
2018-09-30T09:09:27.815Z,56
2018-09-30T09:10:26.937Z,56.6
2018-09-30T09:11:26.257Z,56.2
2018-09-30T09:12:25.463Z,55.3
2018-09-30T09:13:24.889Z,55.9
2018-09-30T09:14:23.889Z,55.9
2018-09-30T09:15:23.079Z,54.6
2018-09-30T09:16:22.211Z,55.5
2018-09-30T09:17:21.026Z,54.3
2018-09-30T09:18:20.139Z,54.4
2018-09-30T09:19:19.469Z,54.3
2018-09-30T09:20:18.702Z,54.1
2018-09-30T09:21:18.020Z,53.9
2018-09-30T09:22:17.199Z,54.7
2018-09-30T09:23:16.315Z,54.2
2018-09-30T09:23:46.944Z,54.2
2018-09-30T09:24:17.486Z,53.6
2018-09-30T09:24:48.116Z,53.6
2018-09-30T09:26:13.643Z,54.3
2018-09-30T09:27:12.855Z,52.7
2018-09-30T09:28:12.328Z,53.6
2018-09-30T09:29:11.122Z,53.9
2018-09-30T09:30:10.452Z,54.1
2018-09-30T09:31:09.775Z,54
2018-09-30T09:32:08.487Z,54.3
2018-09-30T09:33:08.041Z,52.9
2018-09-30T09:34:06.841Z,52.9
2018-09-30T09:34:37.471Z,52.9
2018-09-30T09:35:08.318Z,52.6
2018-09-30T09:35:38.346Z,52.6
2018-09-30T09:36:08.872Z,53.2
2018-09-30T09:36:39.507Z,53.2
2018-09-30T09:38:03.988Z,53.9
2018-09-30T09:39:02.702Z,51.6
2018-09-30T09:40:01.908Z,51.5
2018-09-30T09:41:01.126Z,51.2
2018-09-30T09:42:00.238Z,51.1
2018-09-30T09:42:59.665Z,51.1
2018-09-30T09:43:58.587Z,51.5
2018-09-30T09:44:57.908Z,51.3
2018-09-30T09:45:28.538Z,51.3
2018-09-30T09:45:59.068Z,51.5
2018-09-30T09:46:29.310Z,51.5
2018-09-30T09:47:55.317Z,51.5
2018-09-30T09:48:54.630Z,52.1
2018-09-30T09:49:53.962Z,52.1
2018-09-30T09:50:52.778Z,52.6
2018-09-30T09:51:52.201Z,52.7
2018-09-30T09:52:51.515Z,52.7
2018-09-30T09:53:50.514Z,52.4
2018-09-30T09:54:49.845Z,52.2
2018-09-30T09:55:49.063Z,51.2
2018-09-30T09:56:47.994Z,51.6
2018-09-30T09:57:47.211Z,51.1
2018-09-30T09:58:46.546Z,50.9
2018-09-30T09:59:45.690Z,51
2018-09-30T10:00:44.947Z,51.2
2018-09-30T10:01:44.158Z,49.9
2018-09-30T10:02:42.874Z,49.9
2018-09-30T10:03:42.187Z,49.9
2018-09-30T10:04:41.501Z,49.8
2018-09-30T10:05:41.003Z,50.1
2018-09-30T10:06:39.818Z,49.9
2018-09-30T10:07:38.932Z,49.8
2018-09-30T10:08:38.352Z,49.6
2018-09-30T10:09:37.778Z,50
2018-09-30T10:10:36.583Z,50.1
2018-09-30T10:11:36.006Z,49.7
2018-09-30T10:12:34.816Z,50
2018-09-30T10:13:34.243Z,49.5
2018-09-30T10:14:33.565Z,49.9
2018-09-30T10:15:32.492Z,48.7
2018-09-30T10:16:31.818Z,49.5
2018-09-30T10:17:31.245Z,49.5
2018-09-30T10:18:30.172Z,49.4
2018-09-30T10:19:29.659Z,49.4
2018-09-30T10:20:28.551Z,49.8
2018-09-30T10:21:27.878Z,50.6
2018-09-30T10:22:27.089Z,48.9
2018-09-30T10:23:26.307Z,48.6
2018-09-30T10:24:25.705Z,49.1
2018-09-30T10:25:24.417Z,48.3
2018-09-30T10:26:23.742Z,48.9
2018-09-30T10:27:23.161Z,50
2018-09-30T10:28:22.479Z,49.5
2018-09-30T10:29:21.186Z,49.4
2018-09-30T10:30:20.507Z,50.2
2018-09-30T10:31:19.835Z,50.1
2018-09-30T10:31:50.258Z,50.1
2018-09-30T10:32:20.895Z,49.2
2018-09-30T10:32:51.131Z,49.2
2018-09-30T10:33:21.543Z,48.8
2018-09-30T10:33:52.182Z,48.8
2018-09-30T10:35:16.670Z,48.6
2018-09-30T10:36:15.874Z,49.5
2018-09-30T10:37:14.986Z,48.4
2018-09-30T10:38:14.408Z,47.6
2018-09-30T10:39:14.363Z,46.9
2018-09-30T10:40:12.862Z,46.7
2018-09-30T10:41:11.687Z,45.7
2018-09-30T10:41:42.328Z,45.7
2018-09-30T10:42:12.567Z,45.8
2018-09-30T10:42:43.195Z,45.8
2018-09-30T10:43:13.827Z,46.5
2018-09-30T10:43:44.354Z,46.5
2018-09-30T10:44:14.883Z,46.7
2018-09-30T10:44:45.429Z,46.7
2018-09-30T10:46:07.793Z,45.8
2018-09-30T10:48:06.279Z,46.3
2018-09-30T10:49:05.702Z,45.9
2018-09-30T10:50:04.807Z,45.7
2018-09-30T10:51:04.200Z,45.6
2018-09-30T10:52:03.404Z,45.9
2018-09-30T10:53:02.508Z,46
2018-09-30T10:54:01.721Z,45.9
2018-09-30T10:55:00.934Z,45.5
2018-09-30T10:55:31.181Z,45.5
2018-09-30T10:56:01.712Z,46.9
2018-09-30T10:56:59.471Z,47.2
2018-09-30T10:57:58.639Z,46
2018-09-30T10:58:57.742Z,46.2
2018-09-30T10:59:57.063Z,47.1
2018-09-30T11:00:56.284Z,46.2
2018-09-30T11:01:55.490Z,45.7
2018-09-30T11:02:54.303Z,46.3
2018-09-30T11:03:53.625Z,45.6
2018-09-30T11:04:53.044Z,46.9
2018-09-30T11:05:52.268Z,45.6
2018-09-30T11:06:51.581Z,46
2018-09-30T11:07:50.541Z,45.6
2018-09-30T11:08:49.652Z,46.1
2018-09-30T11:09:49.697Z,44.3
2018-09-30T11:10:48.337Z,44.7
2018-09-30T11:11:47.669Z,44.1
2018-09-30T11:12:18.191Z,44.1
2018-09-30T11:13:45.815Z,44.1
2018-09-30T11:14:16.332Z,44.1
2018-09-30T11:14:46.964Z,42.7
2018-09-30T11:15:17.596Z,42.7
2018-09-30T11:16:43.690Z,41.9
2018-09-30T11:17:43.016Z,41.5
2018-09-30T11:18:41.935Z,41.6
2018-09-30T11:19:41.157Z,41.9
2018-09-30T11:20:40.480Z,43
2018-09-30T11:21:39.692Z,42.3
2018-09-30T11:22:39.065Z,41.1
2018-09-30T11:23:09.222Z,41.1
2018-09-30T11:23:39.530Z,42.1
2018-09-30T11:24:10.170Z,42.1
2018-09-30T11:24:40.802Z,41.7
2018-09-30T11:25:11.108Z,41.7
2018-09-30T11:25:41.632Z,41.2
2018-09-30T11:26:12.263Z,41.2
2018-09-30T11:27:35.349Z,41.6
2018-09-30T11:28:34.274Z,42.9
2018-09-30T11:29:33.707Z,41.6
2018-09-30T11:30:32.923Z,41.2
2018-09-30T11:31:32.239Z,41.4
2018-09-30T11:32:31.168Z,41.4
2018-09-30T11:33:30.499Z,41.7
2018-09-30T11:34:29.719Z,41.7
2018-09-30T11:35:29.044Z,42
2018-09-30T11:36:28.367Z,41.9
2018-09-30T11:36:58.909Z,41.9
2018-09-30T11:37:29.544Z,41.7
2018-09-30T11:38:26.858Z,41.6
2018-09-30T11:39:26.173Z,42.1
2018-09-30T11:40:25.286Z,41.7
2018-09-30T11:41:24.598Z,42.4
2018-09-30T11:42:23.908Z,41.3
2018-09-30T11:43:23.123Z,42.3
2018-09-30T11:44:22.341Z,40.9
2018-09-30T11:45:21.449Z,40.2
2018-09-30T11:46:20.557Z,40.8
2018-09-30T11:47:20.060Z,41.9
2018-09-30T11:48:19.161Z,42.5
2018-09-30T11:49:18.474Z,40.6
2018-09-30T11:50:17.404Z,41.2
2018-09-30T11:51:16.728Z,41.1
2018-09-30T11:52:16.063Z,39.9
2018-09-30T11:53:15.490Z,39.7
2018-09-30T11:54:14.305Z,39.6
2018-09-30T11:55:13.728Z,39.6
2018-09-30T11:55:44.357Z,39.6
2018-09-30T11:56:14.990Z,40.2
2018-09-30T11:56:45.626Z,40.2
2018-09-30T11:58:11.623Z,40.3
2018-09-30T11:59:10.947Z,40.7
2018-09-30T12:00:09.868Z,40.2
2018-09-30T12:01:09.405Z,39.8
2018-09-30T12:02:08.636Z,39.6
2018-09-30T12:03:07.816Z,39.1
2018-09-30T12:04:06.816Z,40.2
2018-09-30T12:05:06.025Z,38.5
2018-09-30T12:06:05.746Z,37.1
2018-09-30T12:06:36.370Z,37.1
2018-09-30T12:07:06.886Z,38.1
2018-09-30T12:08:04.187Z,36.8
2018-09-30T12:09:02.996Z,37.3
2018-09-30T12:10:02.593Z,36.9
2018-09-30T12:11:01.811Z,36.5
2018-09-30T12:12:00.916Z,36.4
2018-09-30T12:13:00.412Z,36.6
2018-09-30T12:13:59.753Z,36.5
2018-09-30T12:14:59.070Z,36.1
2018-09-30T12:15:57.999Z,36.5
2018-09-30T12:16:57.208Z,35.3
2018-09-30T12:17:56.414Z,35.4
2018-09-30T12:18:55.735Z,35.6
2018-09-30T12:19:54.837Z,35.4
2018-09-30T12:20:54.555Z,35.2
2018-09-30T12:21:53.759Z,35.5
2018-09-30T12:22:24.396Z,35.5
2018-09-30T12:22:54.810Z,35.7
2018-09-30T12:23:25.438Z,35.7
2018-09-30T12:23:56.070Z,35.9
2018-09-30T12:24:51.372Z,35.9
2018-09-30T12:25:51.089Z,36.3
2018-09-30T12:26:50.123Z,35.9
2018-09-30T12:27:49.227Z,36.5
2018-09-30T12:28:48.552Z,36.6
2018-09-30T12:29:47.873Z,36.6
2018-09-30T12:30:46.986Z,36.6
2018-09-30T12:31:46.414Z,37.1
2018-09-30T12:32:45.849Z,35.6
2018-09-30T12:33:16.376Z,35.6